Time;durP1;ratioP1;P1;durP2;ratioP2;P2;SDS_P1;SDS_P2;PMS_P1;PMS_P2;Temp;Humidity;BMP_temperature;BMP_pressure;BME280_temperature;BME280_humidity;BME280_pressure;Samples;Min_cycle;Max_cycle;Signal;HPM_P1;HPM_P2
2023/10/03 00:00:24;;;;;;;36.30;15.73;;;19.90;99.90;;;20.20;61.83;100175.13;5014740;28;20444;-83
2023/10/03 00:02:54;;;;;;;;;;;20.00;99.90;;;20.21;61.80;100176.78;5015347;28;20042;-83
2023/10/03 00:05:23;;;;;;;37.37;14.80;;;20.00;99.90;;;20.16;62.30;100176.81;4981593;28;19921;-83
2023/10/03 00:07:53;;;;;;;40.97;16.92;;;20.00;99.90;;;20.17;62.19;100167.59;4980721;28;20387;-83
2023/10/03 00:10:21;;;;;;;35.33;16.42;;;20.00;99.90;;;20.17;62.04;100164.88;4996510;28;20050;-83
2023/10/03 00:12:51;;;;;;;34.90;16.08;;;20.00;99.90;;;20.18;62.21;100163.78;5014440;28;20440;-83
2023/10/03 00:15:21;;;;;;;33.45;15.25;;;20.00;99.90;;;20.19;62.28;100154.56;5014349;28;20523;-83
2023/10/03 00:17:49;;;;;;;35.63;15.60;;;20.00;99.90;;;20.17;62.10;100144.03;5014416;28;20042;-83
2023/10/03 00:20:18;;;;;;;37.63;16.92;;;20.00;99.90;;;20.16;62.28;100147.81;5014230;28;20053;-83
2023/10/03 00:22:46;;;;;;;37.17;16.23;;;20.00;99.90;;;20.16;62.16;100139.69;4996635;28;20145;-83
2023/10/03 00:25:18;;;;;;;37.20;16.13;;;20.00;99.90;;;20.16;62.30;100133.47;4998542;28;20144;-83
2023/10/03 00:27:49;;;;;;;32.55;16.00;;;20.00;99.90;;;20.16;62.38;100128.06;5001659;28;20066;-83
2023/10/03 00:30:19;;;;;;;34.33;14.93;;;20.00;99.90;;;20.19;62.02;100133.72;5001230;28;20050;-83
2023/10/03 00:32:47;;;;;;;37.15;16.50;;;20.10;99.90;;;20.21;62.12;100117.19;5017831;28;20049;-83
2023/10/03 00:35:15;;;;;;;38.83;16.90;;;20.10;99.90;;;20.21;62.13;100114.50;5000130;28;20564;-83
2023/10/03 00:37:44;;;;;;;35.35;16.52;;;20.10;99.90;;;20.19;62.22;100122.88;5000564;28;20067;-83
2023/10/03 00:40:27;;;;;;;39.00;16.88;;;20.10;99.90;;;20.22;62.35;100118.81;5000403;28;20065;-83
2023/10/03 00:42:58;;;;;;;35.72;15.77;;;20.10;99.90;;;20.25;62.17;100101.97;4998418;28;20050;-83
2023/10/03 00:45:26;;;;;;;37.60;16.52;;;20.10;99.90;;;20.22;62.35;100107.97;5000402;28;20509;-83
2023/10/03 00:47:55;;;;;;;36.28;16.05;;;20.10;99.90;;;20.25;62.02;100112.81;5000739;28;20061;-83
2023/10/03 00:50:25;;;;;;;33.25;15.52;;;20.20;99.90;;;20.28;62.02;100104.94;5000154;28;20081;-83
2023/10/03 00:52:57;;;;;;;31.75;15.38;;;20.20;99.90;;;20.30;62.09;100101.91;5000357;28;20045;-83
2023/10/03 00:55:29;;;;;;;38.47;16.25;;;20.20;99.90;;;20.33;61.80;100104.88;5017725;28;20050;-83
2023/10/03 00:58:06;;;;;;;35.95;15.70;;;20.30;99.90;;;20.33;62.00;100104.88;4999690;28;20077;-83
2023/10/03 01:00:38;;;;;;;36.47;15.68;;;20.30;99.90;;;20.35;62.03;100101.06;4981988;28;20038;-83
2023/10/03 01:03:09;;;;;;;31.33;15.32;;;20.20;99.90;;;20.36;61.72;100087.25;4980333;28;20046;-83
2023/10/03 01:05:38;;;;;;;32.03;16.05;;;20.30;99.90;;;20.38;62.02;100086.97;4980747;28;20046;-83
2023/10/03 01:08:07;;;;;;;36.20;16.15;;;20.20;99.90;;;20.36;62.00;100083.75;4980217;28;20042;-83
2023/10/03 01:10:36;;;;;;;33.95;16.30;;;20.20;99.90;;;20.32;62.40;100092.44;4980338;28;20516;-83
2023/10/03 01:13:10;;;;;;;33.95;15.88;;;20.20;99.90;;;20.33;62.26;100076.97;5013354;28;20104;-83
2023/10/03 01:15:37;;;;;;;35.13;16.45;;;20.20;99.90;;;20.36;62.18;100075.63;5000083;28;20502;-83
2023/10/03 01:18:09;;;;;;;31.00;15.07;;;20.20;99.90;;;20.37;61.92;100069.09;5017118;28;20046;-83
2023/10/03 01:20:40;;;;;;;34.85;15.75;;;20.20;99.90;;;20.37;62.18;100052.84;4999928;28;20038;-83
2023/10/03 01:23:11;;;;;;;35.33;16.25;;;20.30;99.90;;;20.40;61.62;100055.81;5016938;28;20134;-83
2023/10/03 01:25:42;;;;;;;31.95;15.43;;;20.30;99.90;;;20.41;61.17;100056.59;4983984;28;20466;-83
2023/10/03 01:28:10;;;;;;;31.20;14.80;;;20.30;99.90;;;20.43;61.52;100059.81;4968091;28;20046;-83
2023/10/03 01:30:40;;;;;;;30.75;15.82;;;20.40;99.90;;;20.41;61.98;100054.69;5017574;28;20276;-83
2023/10/03 01:33:09;;;;;;;35.80;16.10;;;20.30;99.90;;;20.41;62.00;100051.19;4999336;28;20389;-83
2023/10/03 01:35:36;;;;;;;31.50;14.98;;;20.30;99.90;;;20.42;61.97;100042.75;5016688;28;20082;-83
2023/10/03 01:38:05;;;;;;;36.70;15.73;;;20.40;99.90;;;20.45;61.13;100039.50;4998918;28;20138;-83
2023/10/03 01:40:34;;;;;;;30.80;14.88;;;20.30;99.90;;;20.45;61.23;100030.56;4982940;28;20065;-83
2023/10/03 01:43:02;;;;;;;30.65;14.43;;;20.30;99.90;;;20.42;61.23;100026.50;4999180;28;20061;-83
2023/10/03 01:45:32;;;;;;;29.92;14.20;;;20.30;99.90;;;20.43;61.45;100021.91;4999787;28;20448;-83
2023/10/03 01:48:05;;;;;;;30.70;14.05;;;20.30;99.90;;;20.43;61.33;100020.00;4967403;28;20054;-83
2023/10/03 01:50:34;;;;;;;33.90;14.55;;;20.30;99.90;;;20.42;61.57;100004.03;4999795;28;20050;-83
2023/10/03 01:53:02;;;;;;;30.60;14.20;;;20.40;99.90;;;20.45;61.33;99992.63;4998830;28;20050;-83
2023/10/03 01:55:30;;;;;;;29.23;14.27;;;20.40;99.90;;;20.45;61.26;99977.19;4982231;28;20056;-83
2023/10/03 01:58:00;;;;;;;29.88;14.52;;;20.30;99.90;;;20.47;61.22;99979.63;4981799;28;20077;-83
2023/10/03 02:00:30;;;;;;;31.83;14.05;;;20.40;99.90;;;20.48;60.89;99978.53;4961764;28;20046;-83
2023/10/03 02:03:05;;;;;;;29.60;14.02;;;20.30;99.90;;;20.47;61.16;99969.59;4982659;28;20085;-83
2023/10/03 02:05:34;;;;;;;29.90;13.38;;;20.30;99.90;;;20.48;60.71;99962.28;5003234;28;20042;-83
2023/10/03 02:08:07;;;;;;;27.23;12.68;;;20.40;99.90;;;20.50;60.36;99955.47;4998838;28;20523;-83
2023/10/03 02:10:36;;;;;;;27.83;12.52;;;20.40;99.90;;;20.55;60.01;99944.59;5014210;28;20046;-83
2023/10/03 02:13:11;;;;;;;27.13;13.25;;;20.50;99.90;;;20.56;59.91;99924.50;4981363;28;20061;-83
2023/10/03 02:15:39;;;;;;;29.30;13.32;;;20.50;99.90;;;20.57;60.49;99928.81;4997872;28;20038;-83
2023/10/03 02:18:09;;;;;;;30.30;13.18;;;20.50;99.90;;;20.57;60.03;99930.72;5014898;28;20069;-83
2023/10/03 02:20:47;;;;;;;31.15;14.15;;;20.50;99.90;;;20.57;60.14;99923.41;4982005;28;20092;-83
2023/10/03 02:23:19;;;;;;;26.58;12.60;;;20.50;99.90;;;20.61;59.98;99914.72;5015054;28;20049;-83
2023/10/03 02:25:48;;;;;;;24.75;13.13;;;20.50;99.90;;;20.58;60.22;99911.47;4997568;28;20092;-83
2023/10/03 02:28:18;;;;;;;27.58;12.75;;;20.50;99.90;;;20.60;59.72;99902.25;4998097;28;20096;-83
2023/10/03 02:30:47;;;;;;;28.13;13.33;;;20.50;99.90;;;20.61;59.79;99912.81;4996573;28;20050;-83
2023/10/03 02:33:17;;;;;;;27.90;13.25;;;20.50;99.90;;;20.60;59.90;99899.56;5014164;28;20147;-83
2023/10/03 02:35:47;;;;;;;31.98;13.63;;;20.50;99.90;;;20.58;60.22;99906.03;4982588;28;20072;-83
2023/10/03 02:38:24;;;;;;;26.38;12.85;;;20.50;99.90;;;20.56;59.94;99893.91;4997046;28;20513;-83
2023/10/03 02:40:54;;;;;;;31.80;14.00;;;20.40;99.90;;;20.58;59.50;99887.06;4997194;28;20452;-83
2023/10/03 02:43:24;;;;;;;24.95;12.35;;;20.50;99.90;;;20.58;59.79;99884.38;4984641;28;20041;-84
2023/10/03 02:45:52;;;;;;;28.08;12.90;;;20.50;99.90;;;20.59;59.52;99885.16;4980909;28;20052;-83
2023/10/03 02:48:21;;;;;;;27.00;12.65;;;20.50;99.90;;;20.61;59.53;99887.63;4976785;28;20072;-83
2023/10/03 02:50:51;;;;;;;26.42;12.82;;;20.40;99.90;;;20.58;60.36;99883.56;4996260;28;20038;-83
2023/10/03 02:53:21;;;;;;;27.33;12.70;;;20.50;99.90;;;20.55;60.08;99874.13;4996405;28;20141;-83
2023/10/03 02:55:50;;;;;;;29.77;14.05;;;20.50;99.90;;;20.60;59.36;99870.56;5004809;28;20072;-83
2023/10/03 02:58:19;;;;;;;27.17;12.65;;;20.50;99.90;;;20.61;59.32;99864.03;4980097;28;20047;-83
2023/10/03 03:00:51;;;;;;;29.58;13.43;;;20.50;99.90;;;20.67;58.95;99854.72;4996628;28;20046;-83
2023/10/03 03:03:19;;;;;;;30.50;12.05;;;20.60;99.90;;;20.68;58.97;99859.03;5013344;28;20054;-83
2023/10/03 03:05:49;;;;;;;27.88;12.82;;;20.60;99.90;;;20.70;59.15;99858.75;4996966;28;20133;-83
2023/10/03 03:08:25;;;;;;;30.27;12.90;;;20.60;99.90;;;20.69;59.23;99859.84;4980962;28;20053;-83
2023/10/03 03:10:57;;;;;;;29.83;12.48;;;20.60;99.90;;;20.72;59.13;99875.53;4982335;28;20460;-83
2023/10/03 03:13:26;;;;;;;26.58;12.95;;;20.70;99.90;;;20.71;59.55;99865.78;4996563;28;20046;-83
2023/10/03 03:15:59;;;;;;;29.65;12.60;;;20.70;99.90;;;20.68;59.09;99855.53;4981353;28;20105;-83
2023/10/03 03:18:31;;;;;;;26.05;12.95;;;20.60;99.90;;;20.70;58.94;99858.75;5014709;28;20124;-83
2023/10/03 03:21:02;;;;;;;28.10;12.68;;;20.70;99.90;;;20.68;59.43;99866.38;4983228;28;20072;-83
2023/10/03 03:23:35;;;;;;;25.35;12.20;;;20.60;99.90;;;20.68;59.29;99863.66;4980058;28;20073;-83
2023/10/03 03:26:17;;;;;;;28.27;12.73;;;20.60;99.90;;;20.64;59.55;99866.13;5014469;28;20065;-83
2023/10/03 03:28:49;;;;;;;28.42;12.73;;;20.60;99.90;;;20.68;59.60;99855.53;4995743;28;20042;-83
2023/10/03 03:31:21;;;;;;;26.65;12.02;;;20.60;99.90;;;20.68;59.73;99869.88;4980727;28;20428;-83
2023/10/03 03:33:51;;;;;;;26.05;12.82;;;20.70;99.90;;;20.66;59.81;99852.31;4997110;28;20046;-83
2023/10/03 03:36:21;;;;;;;26.35;12.20;;;20.60;99.90;;;20.64;60.09;99855.28;4998311;28;20519;-83
2023/10/03 03:38:53;;;;;;;24.50;12.15;;;20.60;99.90;;;20.63;60.06;99852.88;5015001;28;20076;-83
2023/10/03 03:41:23;;;;;;;32.55;13.45;;;20.60;99.90;;;20.61;60.18;99847.78;4996643;28;20050;-83
2023/10/03 03:43:52;;;;;;;24.98;11.18;;;20.50;99.90;;;20.58;60.43;99851.84;4981358;28;20053;-83
2023/10/03 03:46:21;;;;;;;26.70;12.23;;;20.50;99.90;;;20.59;60.45;99852.66;4997797;28;20493;-83
2023/10/03 03:48:50;;;;;;;25.35;11.95;;;20.50;99.90;;;20.60;60.02;99854.28;5014611;28;20116;-83
2023/10/03 03:51:18;;;;;;;25.30;12.27;;;20.50;99.90;;;20.61;60.04;99871.34;5013215;28;20046;-83
2023/10/03 03:53:47;;;;;;;25.80;12.35;;;20.50;99.90;;;20.61;60.24;99887.63;4997056;28;20140;-83
2023/10/03 03:56:16;;;;;;;28.02;12.05;;;20.50;99.90;;;20.57;60.52;99882.75;5014563;28;20482;-83
2023/10/03 03:58:45;;;;;;;28.60;12.85;;;20.50;99.90;;;20.56;61.10;99881.16;4997383;28;20050;-83
2023/10/03 04:01:15;;;;;;;24.25;12.13;;;20.50;99.90;;;20.54;61.22;99886.03;5011543;28;20065;-83
2023/10/03 04:03:45;;;;;;;28.93;12.57;;;20.50;99.90;;;20.51;61.40;99892.06;4984303;28;20432;-83
2023/10/03 04:06:13;;;;;;;27.23;12.80;;;20.50;99.90;;;20.53;60.91;99887.16;5001108;28;20038;-83
2023/10/03 04:08:40;;;;;;;26.80;12.70;;;20.50;99.90;;;20.55;61.31;99879.56;5001226;28;20048;-83
2023/10/03 04:11:08;;;;;;;25.75;12.18;;;20.50;99.90;;;20.54;61.19;99886.03;5017996;28;20497;-83
2023/10/03 04:13:38;;;;;;;26.27;11.50;;;20.50;99.90;;;20.51;61.30;99889.34;5017235;28;20465;-84
2023/10/03 04:16:07;;;;;;;25.98;12.35;;;20.50;99.90;;;20.49;61.40;99890.72;5000667;28;20046;-83
2023/10/03 04:18:37;;;;;;;30.20;13.15;;;20.50;99.90;;;20.50;61.18;99890.47;5000632;28;20073;-83
2023/10/03 04:21:06;;;;;;;25.75;12.18;;;20.40;99.90;;;20.48;61.68;99894.53;4984600;28;20034;-83
2023/10/03 04:23:34;;;;;;;25.00;12.10;;;20.40;99.90;;;20.47;61.61;99893.75;4997159;28;20105;-83
2023/10/03 04:26:01;;;;;;;24.17;11.88;;;20.40;99.90;;;20.46;61.97;99897.53;4983864;28;20099;-83
2023/10/03 04:28:29;;;;;;;26.38;12.13;;;20.40;99.90;;;20.45;61.83;99890.50;5018204;28;20035;-83
2023/10/03 04:30:57;;;;;;;25.75;12.07;;;20.40;99.90;;;20.45;61.78;99893.22;4984097;28;20049;-83
2023/10/03 04:33:25;;;;;;;25.67;11.45;;;20.40;99.90;;;20.47;61.55;99893.75;5001054;28;20042;-83
2023/10/03 04:35:53;;;;;;;27.08;12.43;;;20.50;99.90;;;20.47;61.60;99882.91;5017986;28;20050;-83
2023/10/03 04:38:22;;;;;;;22.42;10.70;;;20.50;99.90;;;20.47;62.25;99879.41;5001009;28;20046;-83
2023/10/03 04:40:50;;;;;;;26.42;12.50;;;20.40;99.90;;;20.44;62.48;99888.88;5000470;28;20053;-83
2023/10/03 04:43:17;;;;;;;29.25;12.02;;;20.40;99.90;;;20.46;61.85;99894.81;5018462;28;20129;-83
2023/10/03 04:45:44;;;;;;;21.73;11.10;;;20.40;99.90;;;20.46;62.26;99885.88;5017699;28;20140;-83
2023/10/03 04:48:12;;;;;;;22.60;11.02;;;20.40;99.90;;;20.43;62.21;99889.97;5018003;28;20042;-83
2023/10/03 04:50:41;;;;;;;25.92;10.88;;;20.30;99.90;;;20.41;62.25;99894.88;4979586;28;20483;-83
2023/10/03 04:53:14;;;;;;;24.35;11.00;;;20.30;99.90;;;20.41;62.40;99891.38;4996018;28;20498;-83
2023/10/03 04:55:44;;;;;;;23.60;11.82;;;20.30;99.90;;;20.39;62.42;99896.25;4995682;28;20049;-83
2023/10/03 04:58:13;;;;;;;25.23;11.37;;;20.30;99.90;;;20.36;63.07;99903.06;4964110;28;20117;-83
2023/10/03 05:00:42;;;;;;;23.73;10.82;;;20.30;99.90;;;20.36;62.93;99899.56;4964139;28;20121;-83
2023/10/03 05:03:10;;;;;;;25.08;10.73;;;20.30;99.90;;;20.34;62.63;99905.25;4995872;28;20050;-83
2023/10/03 05:05:37;;;;;;;22.40;11.05;;;20.30;99.90;;;20.34;63.36;99897.13;4963910;28;20518;-83
2023/10/03 05:08:06;;;;;;;23.20;11.27;;;20.30;99.90;;;20.34;63.10;99907.97;4995741;28;20462;-83
2023/10/03 05:10:35;;;;;;;23.77;10.73;;;20.30;99.90;;;20.33;63.08;99898.22;4994336;28;20093;-83
2023/10/03 05:13:05;;;;;;;21.15;10.93;;;20.30;99.90;;;20.33;63.16;99893.59;4979713;28;20054;-83
2023/10/03 05:15:44;;;;;;;22.58;10.95;;;20.30;99.90;;;20.35;63.54;99893.34;4979749;28;20058;-83
2023/10/03 05:18:13;;;;;;;23.17;11.20;;;20.20;99.90;;;20.32;63.16;99893.91;4980443;28;20074;-83
2023/10/03 05:20:42;;;;;;;23.05;10.65;;;20.20;99.90;;;20.29;63.27;99898.00;4980440;28;20505;-83
2023/10/03 05:23:09;;;;;;;25.73;11.02;;;20.20;99.90;;;20.29;63.89;99886.34;4999801;28;20073;-83
2023/10/03 05:25:42;;;;;;;27.80;11.32;;;20.20;99.90;;;20.25;63.79;99904.28;4983085;28;20109;-83
2023/10/03 05:28:12;;;;;;;24.35;10.95;;;20.20;99.90;;;20.24;64.17;99905.38;5016846;28;20417;-83
2023/10/03 05:30:39;;;;;;;26.17;11.55;;;20.10;99.90;;;20.26;64.64;99916.75;4999697;28;20066;-83
2023/10/03 05:33:07;;;;;;;24.75;11.75;;;20.10;99.90;;;20.19;64.62;99914.34;5016883;28;20050;-83
2023/10/03 05:35:35;;;;;;;24.58;10.77;;;20.10;99.90;;;20.18;64.24;99899.22;5016920;28;20068;-83
2023/10/03 05:38:08;;;;;;;28.40;11.60;;;20.10;99.90;;;20.22;64.55;99918.41;5017130;28;20530;-83
2023/10/03 05:40:36;;;;;;;22.58;11.50;;;20.10;99.90;;;20.22;64.65;99911.09;4983273;28;20046;-83
2023/10/03 05:43:04;;;;;;;23.15;11.18;;;20.10;99.90;;;20.21;64.59;99912.19;4983321;28;20536;-83
2023/10/03 05:45:34;;;;;;;26.05;10.60;;;20.10;99.90;;;20.21;64.70;99939.28;4999326;28;20093;-83
2023/10/03 05:48:03;;;;;;;22.67;11.07;;;20.10;99.90;;;20.20;65.05;99926.78;4998815;28;20053;-83
2023/10/03 05:50:32;;;;;;;22.48;10.57;;;20.00;99.90;;;20.16;65.43;99935.81;4983024;28;20571;-83
2023/10/03 05:53:00;;;;;;;23.95;10.27;;;20.00;99.90;;;20.14;65.93;99933.38;4967441;28;20057;-83
2023/10/03 05:55:28;;;;;;;21.92;9.88;;;20.00;99.90;;;20.14;65.86;99921.75;4982482;28;20068;-83
2023/10/03 05:57:56;;;;;;;24.02;10.57;;;20.00;99.90;;;20.13;65.72;99926.34;4982682;28;20045;-83
2023/10/03 06:00:23;;;;;;;24.30;11.02;;;20.00;99.90;;;20.15;66.02;99945.81;4998790;28;20104;-83
2023/10/03 06:02:52;;;;;;;24.10;11.45;;;20.00;99.90;;;20.11;66.22;99935.88;4998921;28;20045;-83
2023/10/03 06:05:22;;;;;;;21.63;10.30;;;20.00;99.90;;;20.11;66.46;99944.81;4999101;28;20088;-83
2023/10/03 06:07:50;;;;;;;23.70;10.30;;;20.00;99.90;;;20.11;66.69;99944.00;5016480;28;20168;-83
2023/10/03 06:10:19;;;;;;;25.58;10.63;;;20.00;99.90;;;20.12;66.73;99959.94;5015801;28;20049;-83
2023/10/03 06:12:48;;;;;;;20.08;9.60;;;20.00;99.90;;;20.09;66.61;99962.41;4998906;28;20045;-83
2023/10/03 06:15:16;;;;;;;20.42;10.02;;;20.00;99.90;;;20.09;67.09;99965.13;5014804;28;20420;-83
2023/10/03 06:17:43;;;;;;;21.95;10.05;;;20.00;99.90;;;20.11;67.13;99965.66;4998910;28;20108;-83
2023/10/03 06:20:14;;;;;;;20.85;9.73;;;20.00;99.90;;;20.09;67.29;99979.47;4998304;28;20050;-83
2023/10/03 06:22:42;;;;;;;;;;;20.00;99.90;;;20.10;67.52;99967.53;5015728;28;20045;-83
2023/10/03 06:25:11;;;;;;;22.10;9.35;;;20.00;99.90;;;20.08;67.46;99991.38;5015984;28;19925;-83
2023/10/03 06:27:38;;;;;;;24.40;10.07;;;20.00;99.90;;;20.12;67.82;99972.69;5016644;28;20045;-83
2023/10/03 06:30:08;;;;;;;19.25;9.35;;;20.00;99.90;;;20.12;68.19;99983.50;4997665;28;20045;-83
2023/10/03 06:32:35;;;;;;;21.92;9.75;;;20.00;99.90;;;20.10;68.29;99991.09;4998448;28;20050;-83
2023/10/03 06:35:05;;;;;;;17.88;9.25;;;20.00;99.90;;;20.13;68.75;100004.06;4998161;28;20045;-83
2023/10/03 06:37:34;;;;;;;19.83;9.95;;;20.10;99.90;;;20.12;68.81;99992.44;5015909;28;20456;-83
2023/10/03 06:40:06;;;;;;;18.23;9.30;;;20.00;99.90;;;20.12;68.36;99987.03;4998923;28;20501;-83
2023/10/03 06:42:35;;;;;;;16.38;8.63;;;20.10;99.90;;;20.09;68.78;99994.91;4984849;28;20600;-83
2023/10/03 06:45:03;;;;;;;19.30;8.70;;;20.10;99.90;;;20.13;68.64;99985.13;4984457;28;20077;-83
2023/10/03 06:47:33;;;;;;;19.08;8.85;;;20.10;99.90;;;20.13;68.88;99985.91;5000883;28;20069;-83
2023/10/03 06:50:01;;;;;;;21.30;9.10;;;20.10;99.90;;;20.13;68.93;99990.53;4983377;28;20129;-83
2023/10/03 06:52:29;;;;;;;21.77;8.90;;;20.10;99.90;;;20.09;69.31;99995.69;4999938;28;20398;-83
2023/10/03 06:54:58;;;;;;;19.42;8.32;;;20.10;99.90;;;20.10;69.04;100023.59;5000223;28;20045;-83
2023/10/03 06:57:26;;;;;;;20.85;8.40;;;20.10;99.90;;;20.09;68.97;100024.69;5017969;28;20508;-83
2023/10/03 06:59:55;;;;;;;20.30;9.23;;;20.10;99.90;;;20.11;69.21;100025.22;5000618;28;20390;-83
2023/10/03 07:02:24;;;;;;;18.48;8.75;;;20.10;99.90;;;20.13;69.27;100033.84;5000535;28;20043;-83
2023/10/03 07:04:51;;;;;;;19.00;8.43;;;20.10;99.90;;;20.04;69.33;100055.31;5018627;28;20069;-83
2023/10/03 07:07:20;;;;;;;18.38;7.93;;;20.00;99.90;;;20.01;69.23;100051.28;5017797;28;20168;-83
2023/10/03 07:09:48;;;;;;;15.85;7.47;;;20.00;99.90;;;19.99;68.98;100049.94;4999940;28;20030;-83
2023/10/03 07:12:18;;;;;;;20.23;7.60;;;20.00;99.90;;;19.95;69.34;100071.34;4999787;28;20073;-83
2023/10/03 07:14:48;;;;;;;13.40;6.75;;;20.00;99.90;;;19.92;69.22;100061.09;4999557;28;20050;-83
2023/10/03 07:17:15;;;;;;;16.63;6.45;;;20.00;99.90;;;19.90;69.16;100060.56;4983256;28;20050;-83
2023/10/03 07:19:48;;;;;;;14.32;6.82;;;19.90;99.90;;;19.92;69.16;100066.53;5018755;28;20046;-83
2023/10/03 07:22:15;;;;;;;12.40;6.20;;;19.90;99.90;;;19.92;69.32;100061.09;4985246;28;20064;-83
2023/10/03 07:24:43;;;;;;;16.35;6.22;;;19.90;99.90;;;19.92;69.51;100063.81;4967719;28;20100;-83
2023/10/03 07:27:13;;;;;;;18.10;6.45;;;19.90;99.90;;;19.93;69.40;100064.63;5000215;28;20143;-83
2023/10/03 07:29:43;;;;;;;17.88;6.40;;;19.90;99.90;;;19.96;68.74;100073.00;4999441;28;20042;-83
2023/10/03 07:32:12;;;;;;;14.00;6.35;;;19.90;99.90;;;19.96;68.93;100059.47;5001406;28;20546;-83
2023/10/03 07:34:43;;;;;;;15.55;6.20;;;19.90;99.90;;;19.98;68.73;100059.97;5003814;28;20497;-83
2023/10/03 07:37:10;;;;;;;12.00;5.63;;;19.90;99.90;;;19.92;68.50;100080.06;5002373;28;20060;-83
2023/10/03 07:39:39;;;;;;;12.57;6.07;;;19.90;99.90;;;19.93;68.49;100078.97;5003624;28;20325;-83
2023/10/03 07:42:07;;;;;;;11.68;5.70;;;19.90;99.90;;;19.94;68.84;100066.22;5004073;28;20046;-83
2023/10/03 07:44:37;;;;;;;11.07;5.55;;;19.90;99.90;;;19.96;68.85;100050.50;5021404;28;20049;-83
2023/10/03 07:47:06;;;;;;;11.50;5.07;;;19.90;99.90;;;19.98;68.20;100046.44;5003832;28;20128;-83
2023/10/03 07:49:33;;;;;;;11.85;5.45;;;20.00;99.90;;;20.02;68.08;100071.84;5004086;28;20034;-83
2023/10/03 07:52:01;;;;;;;16.10;5.40;;;20.00;99.90;;;20.03;68.31;100087.00;5002279;28;20038;-83
2023/10/03 07:54:31;;;;;;;12.32;5.57;;;20.00;99.90;;;20.01;68.43;100086.47;5000263;28;20555;-83
2023/10/03 07:57:04;;;;;;;11.23;5.32;;;20.00;99.90;;;20.01;68.12;100097.31;5000287;28;20077;-83
2023/10/03 07:59:32;;;;;;;13.40;5.53;;;19.90;99.90;;;19.98;68.52;100092.44;4984124;28;20046;-83
2023/10/03 08:02:04;;;;;;;11.40;5.05;;;19.90;99.90;;;20.01;68.32;100091.91;5017677;28;20068;-83
2023/10/03 08:04:33;;;;;;;10.93;5.07;;;19.90;99.90;;;19.96;68.85;100108.19;5001333;28;20041;-83
2023/10/03 08:07:04;;;;;;;11.90;5.53;;;19.90;99.90;;;19.93;68.47;100100.63;5000518;28;20045;-83
2023/10/03 08:09:32;;;;;;;11.10;4.97;;;19.90;99.90;;;19.91;69.19;100099.25;4999738;28;20046;-83
2023/10/03 08:12:05;;;;;;;10.88;5.25;;;19.90;99.90;;;19.91;68.97;100091.97;4999740;28;20081;-83
2023/10/03 08:14:35;;;;;;;11.48;5.65;;;19.90;99.90;;;19.92;68.41;100111.72;5020974;28;20041;-83
2023/10/03 08:17:03;;;;;;;16.85;5.57;;;19.90;99.90;;;19.87;68.80;100112.56;4984925;28;20050;-83
2023/10/03 08:19:31;;;;;;;13.15;5.70;;;19.80;99.90;;;19.85;68.87;100114.75;5020883;28;20125;-83
2023/10/03 08:22:01;;;;;;;11.43;4.68;;;19.80;99.90;;;19.86;69.17;100121.75;5001501;28;20048;-83
2023/10/03 08:24:29;;;;;;;10.20;5.25;;;19.90;99.90;;;19.88;69.25;100132.31;5016674;28;20112;-83
2023/10/03 08:26:59;;;;;;;14.85;5.55;;;19.90;99.90;;;19.91;69.00;100116.34;5000161;28;20042;-83
2023/10/03 08:29:27;;;;;;;12.00;4.88;;;19.90;99.90;;;19.92;68.67;100117.94;5002182;28;20500;-83
2023/10/03 08:31:58;;;;;;;9.35;4.93;;;19.90;99.90;;;19.94;68.33;100132.00;5021741;28;20058;-83
2023/10/03 08:34:25;;;;;;;13.88;5.63;;;20.00;99.90;;;19.95;68.80;100139.03;5019405;28;20084;-83
2023/10/03 08:36:54;;;;;;;11.50;5.50;;;20.00;99.90;;;19.97;68.89;100133.34;5019313;28;20099;-83
2023/10/03 08:39:24;;;;;;;11.57;5.05;;;20.00;99.90;;;19.98;68.75;100133.06;5003077;28;20050;-83
2023/10/03 08:42:11;;;;;;;10.55;4.97;;;20.00;99.90;;;20.00;68.69;100135.47;5000567;28;20054;-83
2023/10/03 08:44:51;;;;;;;10.98;5.75;;;20.00;99.90;;;19.98;69.30;100146.59;5000234;28;20046;-83
2023/10/03 08:47:28;;;;;;;13.43;5.60;;;20.00;99.90;;;19.95;69.41;100147.16;5004811;28;20073;-83
2023/10/03 08:50:10;;;;;;;14.75;5.72;;;20.00;99.90;;;19.89;69.93;100158.31;5022566;28;20061;-84
2023/10/03 08:52:47;;;;;;;9.63;5.15;;;19.90;99.90;;;19.92;70.08;100165.88;5003226;28;20056;-84
2023/10/03 08:55:19;;;;;;;13.68;5.45;;;19.90;99.90;;;19.95;69.41;100165.28;5018773;28;20061;-86
2023/10/03 08:57:47;;;;;;;10.25;5.20;;;19.90;99.90;;;19.88;69.41;100162.09;5018131;28;20592;-85
2023/10/03 09:00:15;;;;;;;10.30;5.05;;;19.90;99.90;;;19.86;69.53;100172.38;5000275;28;20108;-86
2023/10/03 09:02:46;;;;;;;12.93;5.47;;;19.90;99.90;;;19.87;69.55;100166.72;5018104;28;20041;-86
2023/10/03 09:05:19;;;;;;;8.23;5.20;;;19.90;99.90;;;19.82;70.03;100169.44;4999578;28;20563;-86
2023/10/03 09:07:47;;;;;;;13.13;5.32;;;19.80;99.90;;;19.80;69.98;100161.59;5016780;28;20092;-87
2023/10/03 09:10:23;;;;;;;8.52;5.25;;;19.80;99.90;;;19.79;70.13;100156.47;4998526;28;20485;-88
2023/10/03 09:12:52;;;;;;;11.98;5.45;;;19.80;99.90;;;19.78;70.05;100161.06;4999217;28;20046;-88
2023/10/03 09:15:22;;;;;;;9.25;5.32;;;19.80;99.90;;;19.80;70.08;100152.66;4982833;28;20046;-88
2023/10/03 09:17:51;;;;;;;12.50;5.93;;;19.80;99.90;;;19.77;70.17;100156.75;4998599;28;20116;-88
2023/10/03 09:20:22;;;;;;;11.38;5.45;;;19.80;99.90;;;19.78;69.82;100160.25;5016642;28;20061;-88
2023/10/03 09:22:52;;;;;;;11.23;5.13;;;19.80;99.90;;;19.78;70.30;100158.38;4982520;28;20049;-88
2023/10/03 09:25:21;;;;;;;10.57;5.47;;;19.80;99.90;;;19.82;70.16;100164.03;4983175;28;20048;-88
2023/10/03 09:27:58;;;;;;;10.82;5.07;;;19.80;99.90;;;19.76;70.21;100165.13;4982508;28;20050;-88
2023/10/03 09:30:37;;;;;;;11.38;5.47;;;19.80;99.90;;;19.83;70.75;100156.72;5015282;28;20524;-88
2023/10/03 09:33:06;;;;;;;11.98;5.43;;;19.80;99.90;;;19.81;70.47;100162.41;5016414;28;20409;-88
2023/10/03 09:35:36;;;;;;;12.85;5.60;;;19.80;99.90;;;19.88;70.34;100162.09;4999346;28;20053;-87
2023/10/03 09:38:06;;;;;;;11.23;5.60;;;19.90;99.90;;;19.91;71.05;100167.78;4998386;28;20077;-88
2023/10/03 09:40:50;;;;;;;10.40;5.13;;;19.90;99.90;;;19.93;70.73;100165.56;5016343;28;20053;-85
2023/10/03 09:43:27;;;;;;;9.80;5.07;;;19.90;99.90;;;19.95;70.65;100163.38;5016104;28;20516;-85
2023/10/03 09:45:56;;;;;;;11.20;5.25;;;20.00;99.90;;;19.98;70.44;100189.91;4998371;28;20132;-86
2023/10/03 09:48:24;;;;;;;10.90;5.25;;;20.00;99.90;;;20.03;70.41;100187.16;5015774;28;20061;-86
2023/10/03 09:50:54;;;;;;;10.20;4.68;;;20.10;99.90;;;20.08;70.93;100178.22;5014891;28;20049;-86
2023/10/03 09:53:27;;;;;;;13.45;5.32;;;20.10;99.90;;;20.06;70.69;100186.63;4998486;28;20113;-85
2023/10/03 09:55:57;;;;;;;9.65;5.10;;;20.10;99.90;;;20.09;70.99;100182.53;5015823;28;20050;-85
2023/10/03 09:58:31;;;;;;;12.15;5.60;;;20.10;99.90;;;20.06;70.71;100186.63;5014909;28;20417;-86
2023/10/03 10:01:01;;;;;;;10.65;5.07;;;20.10;99.90;;;20.09;70.43;100184.44;5016111;28;20060;-85
2023/10/03 10:03:37;;;;;;;10.48;5.22;;;20.10;99.90;;;20.01;70.38;100183.94;5014864;28;20088;-86
2023/10/03 10:06:19;;;;;;;8.20;5.00;;;20.10;99.90;;;20.05;70.51;100181.47;5014559;28;20054;-86
2023/10/03 10:08:58;;;;;;;11.60;5.18;;;20.00;99.90;;;20.04;70.44;100193.38;4992973;28;20524;-86
2023/10/03 10:11:30;;;;;;;8.85;4.90;;;20.00;99.90;;;19.99;70.28;100196.94;4963019;28;20066;-86
2023/10/03 10:14:10;;;;;;;11.73;5.22;;;20.00;99.90;;;19.86;70.75;100188.63;4979015;28;20054;-86
2023/10/03 10:17:16;;;;;;;11.32;5.13;;;19.90;99.90;;;19.83;72.19;100225.19;4995771;28;20538;-86